sensor_id;sensor_type;location;lat;lon;timestamp;pressure;altitude;pressure_sealevel;temperature;humidity
60646;BME280;46462;32.608;-117.032;2023-04-27T00:01:18;99167.28;;;25.05;49.59
60646;BME280;46462;32.608;-117.032;2023-04-27T00:03:49;99166.43;;;25.12;49.35
60646;BME280;46462;32.608;-117.032;2023-04-27T00:06:19;99160.57;;;25.17;49.24
60646;BME280;46462;32.608;-117.032;2023-04-27T00:08:50;99166.10;;;25.24;49.05
60646;BME280;46462;32.608;-117.032;2023-04-27T00:11:20;99166.55;;;25.28;48.83
60646;BME280;46462;32.608;-117.032;2023-04-27T00:13:51;99163.34;;;25.31;48.77
60646;BME280;46462;32.608;-117.032;2023-04-27T00:16:22;99160.77;;;25.37;48.60
60646;BME280;46462;32.608;-117.032;2023-04-27T00:18:53;99156.34;;;25.37;48.57
60646;BME280;46462;32.608;-117.032;2023-04-27T00:21:23;99158.20;;;25.39;48.48
60646;BME280;46462;32.608;-117.032;2023-04-27T00:23:54;99163.84;;;25.46;48.29
60646;BME280;46462;32.608;-117.032;2023-04-27T00:26:24;99160.06;;;25.46;48.34
60646;BME280;46462;32.608;-117.032;2023-04-27T00:28:55;99163.00;;;25.51;48.08
60646;BME280;46462;32.608;-117.032;2023-04-27T00:31:26;99158.20;;;25.55;48.02
60646;BME280;46462;32.608;-117.032;2023-04-27T00:33:57;99160.17;;;25.60;47.86
60646;BME280;46462;32.608;-117.032;2023-04-27T00:36:27;99163.42;;;25.63;47.72
60646;BME280;46462;32.608;-117.032;2023-04-27T00:38:58;99167.00;;;25.60;47.91
60646;BME280;46462;32.608;-117.032;2023-04-27T00:41:28;99164.27;;;25.64;47.70
60646;BME280;46462;32.608;-117.032;2023-04-27T00:43:59;99163.36;;;25.67;47.60
60646;BME280;46462;32.608;-117.032;2023-04-27T00:46:29;99164.51;;;25.67;47.60
60646;BME280;46462;32.608;-117.032;2023-04-27T00:49:00;99161.68;;;25.66;47.66
60646;BME280;46462;32.608;-117.032;2023-04-27T00:51:31;99162.20;;;25.73;47.42
60646;BME280;46462;32.608;-117.032;2023-04-27T00:54:02;99160.53;;;25.73;47.37
60646;BME280;46462;32.608;-117.032;2023-04-27T00:56:32;99163.56;;;25.87;47.29
60646;BME280;46462;32.608;-117.032;2023-04-27T00:59:03;99163.45;;;25.92;46.96
60646;BME280;46462;32.608;-117.032;2023-04-27T01:01:33;99160.47;;;25.93;46.90
60646;BME280;46462;32.608;-117.032;2023-04-27T01:04:04;99163.71;;;26.00;46.72
60646;BME280;46462;32.608;-117.032;2023-04-27T01:06:34;99170.40;;;25.98;46.73
60646;BME280;46462;32.608;-117.032;2023-04-27T01:09:05;99174.43;;;25.90;47.03
60646;BME280;46462;32.608;-117.032;2023-04-27T01:11:36;99169.12;;;25.89;46.99
60646;BME280;46462;32.608;-117.032;2023-04-27T01:14:06;99167.45;;;25.89;46.98
60646;BME280;46462;32.608;-117.032;2023-04-27T01:16:37;99171.52;;;25.90;46.97
60646;BME280;46462;32.608;-117.032;2023-04-27T01:19:08;99175.87;;;25.89;46.94
60646;BME280;46462;32.608;-117.032;2023-04-27T01:21:38;99180.83;;;25.93;46.87
60646;BME280;46462;32.608;-117.032;2023-04-27T01:24:09;99179.54;;;25.93;46.85
60646;BME280;46462;32.608;-117.032;2023-04-27T01:26:40;99177.29;;;25.94;46.86
60646;BME280;46462;32.608;-117.032;2023-04-27T01:29:10;99178.56;;;25.93;46.84
60646;BME280;46462;32.608;-117.032;2023-04-27T01:31:41;99179.74;;;25.94;46.89
60646;BME280;46462;32.608;-117.032;2023-04-27T01:34:12;99182.62;;;25.99;46.69
60646;BME280;46462;32.608;-117.032;2023-04-27T01:36:43;99177.82;;;26.01;46.67
60646;BME280;46462;32.608;-117.032;2023-04-27T01:39:13;99179.12;;;26.01;46.70
60646;BME280;46462;32.608;-117.032;2023-04-27T01:41:44;99182.27;;;26.04;46.55
60646;BME280;46462;32.608;-117.032;2023-04-27T01:44:14;99188.32;;;25.99;46.55
60646;BME280;46462;32.608;-117.032;2023-04-27T01:46:45;99189.15;;;26.04;46.49
60646;BME280;46462;32.608;-117.032;2023-04-27T01:49:16;99192.53;;;26.01;46.56
60646;BME280;46462;32.608;-117.032;2023-04-27T01:51:46;99197.02;;;26.03;46.50
60646;BME280;46462;32.608;-117.032;2023-04-27T01:54:17;99200.14;;;26.02;46.46
60646;BME280;46462;32.608;-117.032;2023-04-27T01:56:48;99199.32;;;26.04;46.46
60646;BME280;46462;32.608;-117.032;2023-04-27T01:59:18;99195.62;;;26.02;46.48
60646;BME280;46462;32.608;-117.032;2023-04-27T02:01:49;99197.34;;;26.03;46.39
60646;BME280;46462;32.608;-117.032;2023-04-27T02:04:20;99196.20;;;26.03;46.42
60646;BME280;46462;32.608;-117.032;2023-04-27T02:06:50;99196.93;;;26.09;46.31
60646;BME280;46462;32.608;-117.032;2023-04-27T02:09:21;99200.83;;;26.10;46.31
60646;BME280;46462;32.608;-117.032;2023-04-27T02:11:51;99206.40;;;26.14;46.21
60646;BME280;46462;32.608;-117.032;2023-04-27T02:14:22;99211.85;;;26.18;46.12
60646;BME280;46462;32.608;-117.032;2023-04-27T02:16:53;99213.13;;;26.21;46.06
60646;BME280;46462;32.608;-117.032;2023-04-27T02:19:24;99210.21;;;26.24;46.01
60646;BME280;46462;32.608;-117.032;2023-04-27T02:21:54;99215.38;;;26.27;45.86
60646;BME280;46462;32.608;-117.032;2023-04-27T02:24:24;99218.86;;;26.27;45.81
60646;BME280;46462;32.608;-117.032;2023-04-27T02:26:55;99217.97;;;26.30;45.69
60646;BME280;46462;32.608;-117.032;2023-04-27T02:29:30;99220.47;;;26.31;45.67
60646;BME280;46462;32.608;-117.032;2023-04-27T02:31:56;99225.03;;;26.35;45.50
60646;BME280;46462;32.608;-117.032;2023-04-27T02:34:27;99224.87;;;26.37;45.47
60646;BME280;46462;32.608;-117.032;2023-04-27T02:36:58;99223.81;;;26.40;45.39
60646;BME280;46462;32.608;-117.032;2023-04-27T02:39:28;99225.14;;;26.40;45.43
60646;BME280;46462;32.608;-117.032;2023-04-27T02:41:59;99229.22;;;26.46;45.25
60646;BME280;46462;32.608;-117.032;2023-04-27T02:44:30;99236.97;;;26.50;45.20
60646;BME280;46462;32.608;-117.032;2023-04-27T02:47:00;99241.32;;;26.54;45.16
60646;BME280;46462;32.608;-117.032;2023-04-27T02:49:31;99246.79;;;26.55;45.12
60646;BME280;46462;32.608;-117.032;2023-04-27T02:52:02;99252.13;;;26.57;45.13
60646;BME280;46462;32.608;-117.032;2023-04-27T02:54:32;99253.30;;;26.57;45.14
60646;BME280;46462;32.608;-117.032;2023-04-27T02:57:03;99257.38;;;26.57;45.19
60646;BME280;46462;32.608;-117.032;2023-04-27T02:59:33;99256.87;;;26.56;45.26
60646;BME280;46462;32.608;-117.032;2023-04-27T03:02:04;99254.95;;;26.57;45.22
60646;BME280;46462;32.608;-117.032;2023-04-27T03:04:35;99253.55;;;26.56;45.22
60646;BME280;46462;32.608;-117.032;2023-04-27T03:07:05;99255.76;;;26.56;45.19
60646;BME280;46462;32.608;-117.032;2023-04-27T03:09:36;99262.22;;;26.54;45.25
60646;BME280;46462;32.608;-117.032;2023-04-27T03:12:07;99264.66;;;26.54;45.22
60646;BME280;46462;32.608;-117.032;2023-04-27T03:14:37;99268.44;;;26.52;45.25
60646;BME280;46462;32.608;-117.032;2023-04-27T03:17:08;99267.48;;;26.50;45.27
60646;BME280;46462;32.608;-117.032;2023-04-27T03:19:39;99263.05;;;26.50;45.24
60646;BME280;46462;32.608;-117.032;2023-04-27T03:22:09;99261.03;;;26.51;45.17
60646;BME280;46462;32.608;-117.032;2023-04-27T03:24:40;99267.30;;;26.49;45.20
60646;BME280;46462;32.608;-117.032;2023-04-27T03:27:11;99274.69;;;26.49;45.13
60646;BME280;46462;32.608;-117.032;2023-04-27T03:29:42;99282.35;;;26.46;45.19
60646;BME280;46462;32.608;-117.032;2023-04-27T03:32:12;99284.13;;;26.47;45.07
60646;BME280;46462;32.608;-117.032;2023-04-27T03:34:43;99283.54;;;26.45;45.17
60646;BME280;46462;32.608;-117.032;2023-04-27T03:37:14;99285.89;;;26.46;45.12
60646;BME280;46462;32.608;-117.032;2023-04-27T03:39:44;99286.32;;;26.42;45.18
60646;BME280;46462;32.608;-117.032;2023-04-27T03:42:14;99285.33;;;26.43;45.13
60646;BME280;46462;32.608;-117.032;2023-04-27T03:44:45;99282.76;;;26.39;45.20
60646;BME280;46462;32.608;-117.032;2023-04-27T03:47:16;99282.01;;;26.39;45.22
60646;BME280;46462;32.608;-117.032;2023-04-27T03:49:47;99280.48;;;26.36;45.16
60646;BME280;46462;32.608;-117.032;2023-04-27T03:52:17;99282.67;;;26.37;45.17
60646;BME280;46462;32.608;-117.032;2023-04-27T03:54:48;99286.19;;;26.35;45.15
60646;BME280;46462;32.608;-117.032;2023-04-27T03:57:18;99291.14;;;26.35;45.17
60646;BME280;46462;32.608;-117.032;2023-04-27T03:59:49;99286.56;;;26.32;45.19
60646;BME280;46462;32.608;-117.032;2023-04-27T04:02:20;99285.45;;;26.31;45.23
60646;BME280;46462;32.608;-117.032;2023-04-27T04:04:51;99284.08;;;26.30;45.22
60646;BME280;46462;32.608;-117.032;2023-04-27T04:07:21;99285.57;;;26.29;45.18
60646;BME280;46462;32.608;-117.032;2023-04-27T04:09:52;99287.29;;;26.25;45.27
60646;BME280;46462;32.608;-117.032;2023-04-27T04:12:23;99283.78;;;26.25;45.22
60646;BME280;46462;32.608;-117.032;2023-04-27T04:14:53;99286.09;;;26.24;45.22
60646;BME280;46462;32.608;-117.032;2023-04-27T04:17:25;99289.53;;;26.26;45.11
60646;BME280;46462;32.608;-117.032;2023-04-27T04:19:55;99288.10;;;26.23;45.13
60646;BME280;46462;32.608;-117.032;2023-04-27T04:22:26;99291.00;;;26.22;45.07
60646;BME280;46462;32.608;-117.032;2023-04-27T04:24:56;99288.13;;;26.21;45.09
60646;BME280;46462;32.608;-117.032;2023-04-27T04:27:27;99289.22;;;26.20;45.06
60646;BME280;46462;32.608;-117.032;2023-04-27T04:29:57;99292.32;;;26.22;44.99
60646;BME280;46462;32.608;-117.032;2023-04-27T04:32:28;99288.96;;;26.21;45.00
60646;BME280;46462;32.608;-117.032;2023-04-27T04:34:59;99290.14;;;26.20;44.94
60646;BME280;46462;32.608;-117.032;2023-04-27T04:37:31;99291.50;;;26.23;44.82
60646;BME280;46462;32.608;-117.032;2023-04-27T04:40:02;99291.22;;;26.19;44.88
60646;BME280;46462;32.608;-117.032;2023-04-27T04:42:30;99293.51;;;26.20;44.86
60646;BME280;46462;32.608;-117.032;2023-04-27T04:45:01;99294.73;;;26.21;44.79
60646;BME280;46462;32.608;-117.032;2023-04-27T04:47:32;99293.49;;;26.20;44.74
60646;BME280;46462;32.608;-117.032;2023-04-27T04:50:08;99295.57;;;26.20;44.70
60646;BME280;46462;32.608;-117.032;2023-04-27T04:52:37;99298.30;;;26.19;44.69
60646;BME280;46462;32.608;-117.032;2023-04-27T04:55:09;99300.54;;;26.18;44.68
60646;BME280;46462;32.608;-117.032;2023-04-27T04:57:39;99302.84;;;26.19;44.63
60646;BME280;46462;32.608;-117.032;2023-04-27T05:00:10;99302.82;;;26.16;44.67
60646;BME280;46462;32.608;-117.032;2023-04-27T05:02:40;99303.71;;;26.17;44.60
60646;BME280;46462;32.608;-117.032;2023-04-27T05:05:10;99308.47;;;26.16;44.60
60646;BME280;46462;32.608;-117.032;2023-04-27T05:07:41;99310.02;;;26.17;44.58
60646;BME280;46462;32.608;-117.032;2023-04-27T05:10:12;99308.50;;;26.14;44.59
60646;BME280;46462;32.608;-117.032;2023-04-27T05:12:42;99307.42;;;26.15;44.55
60646;BME280;46462;32.608;-117.032;2023-04-27T05:15:13;99303.63;;;26.11;44.60
60646;BME280;46462;32.608;-117.032;2023-04-27T05:17:44;99304.68;;;26.17;44.42
60646;BME280;46462;32.608;-117.032;2023-04-27T05:20:15;99301.51;;;26.15;44.44
60646;BME280;46462;32.608;-117.032;2023-04-27T05:22:45;99298.98;;;26.12;44.45
60646;BME280;46462;32.608;-117.032;2023-04-27T05:25:16;99295.72;;;26.07;44.52
60646;BME280;46462;32.608;-117.032;2023-04-27T05:27:46;99298.91;;;26.07;44.49
60646;BME280;46462;32.608;-117.032;2023-04-27T05:30:17;99303.80;;;26.02;44.59
60646;BME280;46462;32.608;-117.032;2023-04-27T05:32:47;99301.08;;;26.04;44.49
60646;BME280;46462;32.608;-117.032;2023-04-27T05:35:18;99298.47;;;26.00;44.56
60646;BME280;46462;32.608;-117.032;2023-04-27T05:37:49;99297.22;;;25.98;44.55
60646;BME280;46462;32.608;-117.032;2023-04-27T05:40:20;99300.13;;;25.94;44.61
60646;BME280;46462;32.608;-117.032;2023-04-27T05:42:50;99296.88;;;25.98;44.48
60646;BME280;46462;32.608;-117.032;2023-04-27T05:45:21;99289.88;;;25.96;44.49
60646;BME280;46462;32.608;-117.032;2023-04-27T05:47:52;99290.10;;;25.98;44.38
60646;BME280;46462;32.608;-117.032;2023-04-27T05:50:23;99291.83;;;25.95;44.37
60646;BME280;46462;32.608;-117.032;2023-04-27T05:52:53;99291.90;;;25.95;44.32
60646;BME280;46462;32.608;-117.032;2023-04-27T05:55:24;99289.46;;;25.93;44.34
60646;BME280;46462;32.608;-117.032;2023-04-27T05:57:54;99287.28;;;25.88;44.40
60646;BME280;46462;32.608;-117.032;2023-04-27T06:00:25;99288.20;;;25.88;44.35
60646;BME280;46462;32.608;-117.032;2023-04-27T06:02:56;99283.12;;;25.88;44.29
60646;BME280;46462;32.608;-117.032;2023-04-27T06:05:26;99284.68;;;25.88;44.23
60646;BME280;46462;32.608;-117.032;2023-04-27T06:07:57;99287.44;;;25.88;44.19
60646;BME280;46462;32.608;-117.032;2023-04-27T06:10:28;99284.18;;;25.85;44.22
60646;BME280;46462;32.608;-117.032;2023-04-27T06:12:58;99281.00;;;25.86;44.12
60646;BME280;46462;32.608;-117.032;2023-04-27T06:15:29;99278.49;;;25.86;44.09
60646;BME280;46462;32.608;-117.032;2023-04-27T06:18:00;99278.60;;;25.85;44.08
60646;BME280;46462;32.608;-117.032;2023-04-27T06:20:31;99280.37;;;25.83;44.07
60646;BME280;46462;32.608;-117.032;2023-04-27T06:23:01;99282.06;;;25.76;44.20
60646;BME280;46462;32.608;-117.032;2023-04-27T06:25:32;99280.62;;;25.82;44.01
60646;BME280;46462;32.608;-117.032;2023-04-27T06:28:02;99282.76;;;25.84;43.94
60646;BME280;46462;32.608;-117.032;2023-04-27T06:30:33;99283.81;;;25.82;43.90
60646;BME280;46462;32.608;-117.032;2023-04-27T06:33:03;99281.68;;;25.82;43.85
60646;BME280;46462;32.608;-117.032;2023-04-27T06:35:34;99279.30;;;25.83;43.78
60646;BME280;46462;32.608;-117.032;2023-04-27T06:38:05;99275.86;;;25.84;43.71
60646;BME280;46462;32.608;-117.032;2023-04-27T06:40:35;99275.62;;;25.84;43.66
60646;BME280;46462;32.608;-117.032;2023-04-27T06:43:06;99275.74;;;25.85;43.62
60646;BME280;46462;32.608;-117.032;2023-04-27T06:45:36;99274.65;;;25.83;43.64
60646;BME280;46462;32.608;-117.032;2023-04-27T06:48:07;99275.21;;;25.77;43.74
60646;BME280;46462;32.608;-117.032;2023-04-27T06:50:38;99274.32;;;25.75;43.71
60646;BME280;46462;32.608;-117.032;2023-04-27T06:53:09;99272.77;;;25.78;43.63
60646;BME280;46462;32.608;-117.032;2023-04-27T06:55:39;99275.16;;;25.79;43.58
60646;BME280;46462;32.608;-117.032;2023-04-27T06:58:10;99274.93;;;25.75;43.63
60646;BME280;46462;32.608;-117.032;2023-04-27T07:00:40;99277.02;;;25.77;43.55
60646;BME280;46462;32.608;-117.032;2023-04-27T07:03:11;99280.37;;;25.72;43.60
60646;BME280;46462;32.608;-117.032;2023-04-27T07:05:42;99280.33;;;25.73;43.56
60646;BME280;46462;32.608;-117.032;2023-04-27T07:08:13;99277.59;;;25.76;43.43
60646;BME280;46462;32.608;-117.032;2023-04-27T07:10:43;99277.29;;;25.75;43.42
60646;BME280;46462;32.608;-117.032;2023-04-27T07:13:14;99273.86;;;25.72;43.45
60646;BME280;46462;32.608;-117.032;2023-04-27T07:15:45;99275.57;;;25.71;43.42
60646;BME280;46462;32.608;-117.032;2023-04-27T07:18:15;99274.85;;;25.68;43.43
60646;BME280;46462;32.608;-117.032;2023-04-27T07:20:46;99275.96;;;25.73;43.29
60646;BME280;46462;32.608;-117.032;2023-04-27T07:23:17;99276.69;;;25.66;43.38
60646;BME280;46462;32.608;-117.032;2023-04-27T07:25:47;99276.49;;;25.62;43.44
60646;BME280;46462;32.608;-117.032;2023-04-27T07:28:18;99273.25;;;25.61;43.43
60646;BME280;46462;32.608;-117.032;2023-04-27T07:30:49;99272.48;;;25.57;43.45
60646;BME280;46462;32.608;-117.032;2023-04-27T07:33:19;99273.51;;;25.57;43.40
60646;BME280;46462;32.608;-117.032;2023-04-27T07:35:50;99275.76;;;25.58;43.38
60646;BME280;46462;32.608;-117.032;2023-04-27T07:38:21;99274.90;;;25.52;43.43
60646;BME280;46462;32.608;-117.032;2023-04-27T07:40:51;99274.32;;;25.54;43.36
60646;BME280;46462;32.608;-117.032;2023-04-27T07:43:22;99272.18;;;25.58;43.23
60646;BME280;46462;32.608;-117.032;2023-04-27T07:45:53;99269.22;;;25.58;43.21
60646;BME280;46462;32.608;-117.032;2023-04-27T07:48:24;99271.62;;;25.60;43.11
60646;BME280;46462;32.608;-117.032;2023-04-27T07:50:54;99271.36;;;25.51;43.26
60646;BME280;46462;32.608;-117.032;2023-04-27T07:53:25;99270.68;;;25.57;43.11
60646;BME280;46462;32.608;-117.032;2023-04-27T07:55:55;99269.47;;;25.54;43.17
60646;BME280;46462;32.608;-117.032;2023-04-27T07:58:25;99265.05;;;25.52;43.16
60646;BME280;46462;32.608;-117.032;2023-04-27T08:00:56;99259.64;;;25.52;43.13
60646;BME280;46462;32.608;-117.032;2023-04-27T08:03:27;99259.91;;;25.51;43.15
60646;BME280;46462;32.608;-117.032;2023-04-27T08:05:58;99261.75;;;25.45;43.21
60646;BME280;46462;32.608;-117.032;2023-04-27T08:08:29;99266.08;;;25.47;43.16
60646;BME280;46462;32.608;-117.032;2023-04-27T08:10:59;99265.23;;;25.47;43.12
60646;BME280;46462;32.608;-117.032;2023-04-27T08:13:30;99262.47;;;25.49;43.08
60646;BME280;46462;32.608;-117.032;2023-04-27T08:16:00;99262.55;;;25.48;43.05
60646;BME280;46462;32.608;-117.032;2023-04-27T08:18:31;99258.43;;;25.50;42.98
60646;BME280;46462;32.608;-117.032;2023-04-27T08:21:02;99253.25;;;25.47;43.01
60646;BME280;46462;32.608;-117.032;2023-04-27T08:23:32;99250.73;;;25.42;43.08
60646;BME280;46462;32.608;-117.032;2023-04-27T08:26:03;99252.93;;;25.39;43.11
60646;BME280;46462;32.608;-117.032;2023-04-27T08:28:34;99249.14;;;25.44;42.96
60646;BME280;46462;32.608;-117.032;2023-04-27T08:31:04;99247.04;;;25.39;43.02
60646;BME280;46462;32.608;-117.032;2023-04-27T08:33:35;99247.71;;;25.44;42.87
60646;BME280;46462;32.608;-117.032;2023-04-27T08:36:06;99248.34;;;25.43;42.86
60646;BME280;46462;32.608;-117.032;2023-04-27T08:38:36;99242.32;;;25.39;42.90
60646;BME280;46462;32.608;-117.032;2023-04-27T08:41:07;99240.07;;;25.41;42.85
60646;BME280;46462;32.608;-117.032;2023-04-27T08:43:37;99240.95;;;25.43;42.76
60646;BME280;46462;32.608;-117.032;2023-04-27T08:46:08;99236.95;;;25.40;42.78
60646;BME280;46462;32.608;-117.032;2023-04-27T08:48:39;99231.23;;;25.38;42.76
60646;BME280;46462;32.608;-117.032;2023-04-27T08:51:10;99230.82;;;25.37;42.74
60646;BME280;46462;32.608;-117.032;2023-04-27T08:53:47;99229.97;;;25.35;42.76
60646;BME280;46462;32.608;-117.032;2023-04-27T08:56:11;99223.54;;;25.36;42.72
60646;BME280;46462;32.608;-117.032;2023-04-27T08:58:42;99223.59;;;25.38;42.65
60646;BME280;46462;32.608;-117.032;2023-04-27T09:01:12;99221.58;;;25.35;42.68
60646;BME280;46462;32.608;-117.032;2023-04-27T09:03:43;99218.57;;;25.33;42.68
60646;BME280;46462;32.608;-117.032;2023-04-27T09:06:14;99214.78;;;25.36;42.62
60646;BME280;46462;32.608;-117.032;2023-04-27T09:08:45;99210.34;;;25.33;42.64
60646;BME280;46462;32.608;-117.032;2023-04-27T09:11:26;99212.04;;;25.29;42.71
60646;BME280;46462;32.608;-117.032;2023-04-27T09:13:46;99215.03;;;25.30;42.66
60646;BME280;46462;32.608;-117.032;2023-04-27T09:16:22;99217.54;;;25.25;42.68
60646;BME280;46462;32.608;-117.032;2023-04-27T09:18:47;99215.77;;;25.25;42.65
60646;BME280;46462;32.608;-117.032;2023-04-27T09:21:22;99220.72;;;25.27;42.57
60646;BME280;46462;32.608;-117.032;2023-04-27T09:23:49;99226.98;;;25.22;42.66
60646;BME280;46462;32.608;-117.032;2023-04-27T09:26:21;99229.75;;;25.20;42.67
60646;BME280;46462;32.608;-117.032;2023-04-27T09:28:52;99230.99;;;25.18;42.69
60646;BME280;46462;32.608;-117.032;2023-04-27T09:31:21;99231.17;;;25.19;42.67
60646;BME280;46462;32.608;-117.032;2023-04-27T09:33:55;99227.62;;;25.16;42.69
60646;BME280;46462;32.608;-117.032;2023-04-27T09:36:23;99228.29;;;25.19;42.56
60646;BME280;46462;32.608;-117.032;2023-04-27T09:38:53;99225.25;;;25.13;42.71
60646;BME280;46462;32.608;-117.032;2023-04-27T09:41:24;99226.56;;;25.15;42.63
60646;BME280;46462;32.608;-117.032;2023-04-27T09:43:55;99225.58;;;25.13;42.72
60646;BME280;46462;32.608;-117.032;2023-04-27T09:46:26;99220.97;;;25.14;42.69
60646;BME280;46462;32.608;-117.032;2023-04-27T09:48:56;99217.16;;;25.13;42.69
60646;BME280;46462;32.608;-117.032;2023-04-27T09:51:26;99214.04;;;25.18;42.52
60646;BME280;46462;32.608;-117.032;2023-04-27T09:53:58;99213.96;;;25.17;42.50
60646;BME280;46462;32.608;-117.032;2023-04-27T09:56:35;99210.16;;;25.17;42.48
60646;BME280;46462;32.608;-117.032;2023-04-27T09:59:11;99210.08;;;25.14;42.50
60646;BME280;46462;32.608;-117.032;2023-04-27T10:01:36;99206.70;;;25.20;42.33
60646;BME280;46462;32.608;-117.032;2023-04-27T10:04:15;99206.47;;;25.18;42.36
60646;BME280;46462;32.608;-117.032;2023-04-27T10:09:02;99199.94;;;25.16;42.36
60646;BME280;46462;32.608;-117.032;2023-04-27T10:11:39;99200.81;;;25.12;42.38
60646;BME280;46462;32.608;-117.032;2023-04-27T10:14:06;99199.27;;;25.11;42.39
60646;BME280;46462;32.608;-117.032;2023-04-27T10:16:39;99202.61;;;25.14;42.35
60646;BME280;46462;32.608;-117.032;2023-04-27T10:19:08;99199.46;;;25.11;42.33
60646;BME280;46462;32.608;-117.032;2023-04-27T10:21:34;99196.90;;;25.17;42.23
60646;BME280;46462;32.608;-117.032;2023-04-27T10:24:09;99191.91;;;25.24;42.06
60646;BME280;46462;32.608;-117.032;2023-04-27T10:26:36;99187.21;;;25.15;42.16
60646;BME280;46462;32.608;-117.032;2023-04-27T10:29:08;99189.44;;;25.18;42.13
60646;BME280;46462;32.608;-117.032;2023-04-27T10:31:42;99188.16;;;25.18;42.03
60646;BME280;46462;32.608;-117.032;2023-04-27T10:34:09;99184.48;;;25.17;42.05
60646;BME280;46462;32.608;-117.032;2023-04-27T10:36:39;99184.01;;;25.15;42.05
60646;BME280;46462;32.608;-117.032;2023-04-27T10:39:14;99182.66;;;25.12;42.10
60646;BME280;46462;32.608;-117.032;2023-04-27T10:41:48;99184.93;;;25.04;42.22
60646;BME280;46462;32.608;-117.032;2023-04-27T10:44:16;99183.01;;;25.05;42.24
60646;BME280;46462;32.608;-117.032;2023-04-27T10:46:49;99182.59;;;25.10;42.10
60646;BME280;46462;32.608;-117.032;2023-04-27T10:49:12;99183.28;;;25.08;42.05
60646;BME280;46462;32.608;-117.032;2023-04-27T10:51:43;99181.84;;;25.06;42.16
60646;BME280;46462;32.608;-117.032;2023-04-27T10:54:14;99179.43;;;25.07;42.16
60646;BME280;46462;32.608;-117.032;2023-04-27T10:56:45;99178.57;;;25.10;42.02
60646;BME280;46462;32.608;-117.032;2023-04-27T10:59:15;99181.44;;;25.05;42.15
60646;BME280;46462;32.608;-117.032;2023-04-27T11:01:48;99178.54;;;25.08;42.06
60646;BME280;46462;32.608;-117.032;2023-04-27T11:04:16;99176.49;;;25.04;42.13
60646;BME280;46462;32.608;-117.032;2023-04-27T11:06:47;99180.25;;;24.99;42.22
60646;BME280;46462;32.608;-117.032;2023-04-27T11:09:25;99182.17;;;24.97;42.26
60646;BME280;46462;32.608;-117.032;2023-04-27T11:11:48;99183.34;;;25.04;42.07
60646;BME280;46462;32.608;-117.032;2023-04-27T11:14:20;99188.76;;;25.06;42.03
60646;BME280;46462;32.608;-117.032;2023-04-27T11:16:50;99190.48;;;25.03;42.02
60646;BME280;46462;32.608;-117.032;2023-04-27T11:19:21;99188.24;;;25.07;41.89
60646;BME280;46462;32.608;-117.032;2023-04-27T11:24:22;99187.39;;;25.05;41.94
60646;BME280;46462;32.608;-117.032;2023-04-27T11:26:53;99185.35;;;25.01;41.98
60646;BME280;46462;32.608;-117.032;2023-04-27T11:29:23;99188.11;;;24.99;41.99
60646;BME280;46462;32.608;-117.032;2023-04-27T11:31:54;99190.30;;;24.97;42.03
60646;BME280;46462;32.608;-117.032;2023-04-27T11:34:25;99186.36;;;25.00;41.89
60646;BME280;46462;32.608;-117.032;2023-04-27T11:36:58;99187.93;;;24.99;41.96
60646;BME280;46462;32.608;-117.032;2023-04-27T11:39:27;99191.00;;;25.03;41.82
60646;BME280;46462;32.608;-117.032;2023-04-27T11:41:57;99191.60;;;25.06;41.76
60646;BME280;46462;32.608;-117.032;2023-04-27T11:44:27;99194.71;;;24.95;41.93
60646;BME280;46462;32.608;-117.032;2023-04-27T11:46:58;99198.68;;;24.94;41.98
60646;BME280;46462;32.608;-117.032;2023-04-27T11:49:29;99198.19;;;24.96;41.86
60646;BME280;46462;32.608;-117.032;2023-04-27T11:52:00;99198.36;;;24.90;41.98
60646;BME280;46462;32.608;-117.032;2023-04-27T11:54:30;99196.11;;;24.89;42.06
60646;BME280;46462;32.608;-117.032;2023-04-27T11:57:05;99198.57;;;24.93;41.87
60646;BME280;46462;32.608;-117.032;2023-04-27T11:59:32;99202.54;;;24.93;41.87
60646;BME280;46462;32.608;-117.032;2023-04-27T12:02:02;99205.26;;;24.95;41.82
60646;BME280;46462;32.608;-117.032;2023-04-27T12:04:33;99204.77;;;24.92;41.78
60646;BME280;46462;32.608;-117.032;2023-04-27T12:07:04;99201.86;;;24.92;41.81
60646;BME280;46462;32.608;-117.032;2023-04-27T12:09:34;99206.62;;;24.88;41.86
60646;BME280;46462;32.608;-117.032;2023-04-27T12:12:05;99205.05;;;24.94;41.72
60646;BME280;46462;32.608;-117.032;2023-04-27T12:14:35;99206.35;;;24.92;41.75
60646;BME280;46462;32.608;-117.032;2023-04-27T12:17:06;99207.29;;;24.89;41.81
60646;BME280;46462;32.608;-117.032;2023-04-27T12:19:37;99206.86;;;24.88;41.86
60646;BME280;46462;32.608;-117.032;2023-04-27T12:22:08;99207.69;;;24.87;41.83
60646;BME280;46462;32.608;-117.032;2023-04-27T12:24:38;99209.28;;;24.82;41.92
60646;BME280;46462;32.608;-117.032;2023-04-27T12:27:09;99209.41;;;24.92;41.73
60646;BME280;46462;32.608;-117.032;2023-04-27T12:29:39;99207.95;;;24.85;41.83
60646;BME280;46462;32.608;-117.032;2023-04-27T12:32:10;99207.14;;;24.82;41.89
60646;BME280;46462;32.608;-117.032;2023-04-27T12:34:41;99206.94;;;24.83;41.79
60646;BME280;46462;32.608;-117.032;2023-04-27T12:37:12;99206.33;;;24.79;41.84
60646;BME280;46462;32.608;-117.032;2023-04-27T12:39:42;99206.46;;;24.80;41.89
60646;BME280;46462;32.608;-117.032;2023-04-27T12:42:13;99205.88;;;24.83;41.78
60646;BME280;46462;32.608;-117.032;2023-04-27T12:44:44;99208.13;;;24.82;41.75
60646;BME280;46462;32.608;-117.032;2023-04-27T12:47:14;99205.63;;;24.81;41.78
60646;BME280;46462;32.608;-117.032;2023-04-27T12:49:45;99207.78;;;24.81;41.75
60646;BME280;46462;32.608;-117.032;2023-04-27T12:52:16;99208.85;;;24.80;41.75